sensor_id;sensor_type;location;lat;lon;timestamp;pressure;altitude;pressure_sealevel;temperature
76007;BMP280;64699;0.000;0.000;2023-12-20T00:02:08;99705.94;;;19.93
76007;BMP280;64699;0.000;0.000;2023-12-20T00:04:33;99709.97;;;19.92
76007;BMP280;64699;0.000;0.000;2023-12-20T00:06:58;99705.94;;;19.93
76007;BMP280;64699;0.000;0.000;2023-12-20T00:09:23;99700.28;;;19.91
76007;BMP280;64699;0.000;0.000;2023-12-20T00:11:49;99695.28;;;19.89
76007;BMP280;64699;0.000;0.000;2023-12-20T00:14:14;99694.56;;;19.89
76007;BMP280;64699;0.000;0.000;2023-12-20T00:16:39;99693.81;;;19.88
76007;BMP280;64699;0.000;0.000;2023-12-20T00:19:04;99691.66;;;19.87
76007;BMP280;64699;0.000;0.000;2023-12-20T00:21:30;99688.69;;;19.85
76007;BMP280;64699;0.000;0.000;2023-12-20T00:23:55;99692.91;;;19.86
76007;BMP280;64699;0.000;0.000;2023-12-20T00:26:20;99690.16;;;19.86
76007;BMP280;64699;0.000;0.000;2023-12-20T00:28:45;99693.50;;;19.84
76007;BMP280;64699;0.000;0.000;2023-12-20T00:31:10;99687.22;;;19.84
76007;BMP280;64699;0.000;0.000;2023-12-20T00:33:36;99689.44;;;19.85
76007;BMP280;64699;0.000;0.000;2023-12-20T00:36:01;99683.41;;;19.87
76007;BMP280;64699;0.000;0.000;2023-12-20T00:38:26;99681.34;;;19.87
76007;BMP280;64699;0.000;0.000;2023-12-20T00:40:51;99679.16;;;19.86
76007;BMP280;64699;0.000;0.000;2023-12-20T00:43:17;99673.44;;;19.84
76007;BMP280;64699;0.000;0.000;2023-12-20T00:45:42;99674.19;;;19.84
76007;BMP280;64699;0.000;0.000;2023-12-20T00:48:07;99670.69;;;19.84
76007;BMP280;64699;0.000;0.000;2023-12-20T00:50:32;99667.78;;;19.82
76007;BMP280;64699;0.000;0.000;2023-12-20T00:52:58;99666.47;;;19.83
76007;BMP280;64699;0.000;0.000;2023-12-20T00:55:23;99660.81;;;19.81
76007;BMP280;64699;0.000;0.000;2023-12-20T00:57:48;99656.75;;;19.82
76007;BMP280;64699;0.000;0.000;2023-12-20T01:00:13;99666.31;;;19.81
76007;BMP280;64699;0.000;0.000;2023-12-20T01:02:39;99664.09;;;19.79
76007;BMP280;64699;0.000;0.000;2023-12-20T01:05:05;99657.88;;;19.79
76007;BMP280;64699;0.000;0.000;2023-12-20T01:07:32;99654.53;;;19.80
76007;BMP280;64699;0.000;0.000;2023-12-20T01:09:57;99651.25;;;19.82
76007;BMP280;64699;0.000;0.000;2023-12-20T01:12:22;99651.97;;;19.82
76007;BMP280;64699;0.000;0.000;2023-12-20T01:14:48;99652.88;;;19.85
76007;BMP280;64699;0.000;0.000;2023-12-20T01:17:13;99648.63;;;19.84
76007;BMP280;64699;0.000;0.000;2023-12-20T01:19:38;99651.25;;;19.82
76007;BMP280;64699;0.000;0.000;2023-12-20T01:22:03;99648.50;;;19.82
76007;BMP280;64699;0.000;0.000;2023-12-20T01:24:29;99641.50;;;19.81
76007;BMP280;64699;0.000;0.000;2023-12-20T01:26:54;99638.00;;;19.80
76007;BMP280;64699;0.000;0.000;2023-12-20T01:29:19;99640.75;;;19.80
76007;BMP280;64699;0.000;0.000;2023-12-20T01:31:44;99635.25;;;19.80
76007;BMP280;64699;0.000;0.000;2023-12-20T01:34:09;99636.72;;;19.81
76007;BMP280;64699;0.000;0.000;2023-12-20T01:36:35;99631.94;;;19.82
76007;BMP280;64699;0.000;0.000;2023-12-20T01:39:00;99633.97;;;19.81
76007;BMP280;64699;0.000;0.000;2023-12-20T01:41:25;99631.78;;;19.80
76007;BMP280;64699;0.000;0.000;2023-12-20T01:43:50;99626.97;;;19.80
76007;BMP280;64699;0.000;0.000;2023-12-20T01:46:16;99630.31;;;19.79
76007;BMP280;64699;0.000;0.000;2023-12-20T01:48:41;99627.38;;;19.77
76007;BMP280;64699;0.000;0.000;2023-12-20T01:51:07;99621.13;;;19.76
76007;BMP280;64699;0.000;0.000;2023-12-20T01:53:32;99618.91;;;19.75
76007;BMP280;64699;0.000;0.000;2023-12-20T01:55:58;99623.53;;;19.72
76007;BMP280;64699;0.000;0.000;2023-12-20T01:58:23;99621.16;;;19.69
76007;BMP280;64699;0.000;0.000;2023-12-20T02:00:49;99626.66;;;19.69
76007;BMP280;64699;0.000;0.000;2023-12-20T02:03:15;99621.16;;;19.69
76007;BMP280;64699;0.000;0.000;2023-12-20T02:05:40;99619.69;;;19.68
76007;BMP280;64699;0.000;0.000;2023-12-20T02:08:06;99622.97;;;19.66
76007;BMP280;64699;0.000;0.000;2023-12-20T02:10:31;99612.66;;;19.74
76007;BMP280;64699;0.000;0.000;2023-12-20T02:12:56;99607.75;;;19.73
76007;BMP280;64699;0.000;0.000;2023-12-20T02:15:22;99598.94;;;19.67
76007;BMP280;64699;0.000;0.000;2023-12-20T02:17:47;99599.09;;;19.69
76007;BMP280;64699;0.000;0.000;2023-12-20T02:20:13;99596.19;;;19.67
76007;BMP280;64699;0.000;0.000;2023-12-20T02:22:38;99589.22;;;19.66
76007;BMP280;64699;0.000;0.000;2023-12-20T02:25:04;99602.44;;;19.67
76007;BMP280;64699;0.000;0.000;2023-12-20T02:27:29;99588.47;;;19.65
76007;BMP280;64699;0.000;0.000;2023-12-20T02:29:54;99590.66;;;19.67
76007;BMP280;64699;0.000;0.000;2023-12-20T02:32:20;99597.31;;;19.64
76007;BMP280;64699;0.000;0.000;2023-12-20T02:34:47;99586.28;;;19.64
76007;BMP280;64699;0.000;0.000;2023-12-20T02:37:12;99593.06;;;19.63
76007;BMP280;64699;0.000;0.000;2023-12-20T02:39:37;99588.81;;;19.62
76007;BMP280;64699;0.000;0.000;2023-12-20T02:42:03;99581.88;;;19.61
76007;BMP280;64699;0.000;0.000;2023-12-20T02:44:28;99588.13;;;19.61
76007;BMP280;64699;0.000;0.000;2023-12-20T02:46:53;99586.66;;;19.60
76007;BMP280;64699;0.000;0.000;2023-12-20T02:49:19;99581.16;;;19.60
76007;BMP280;64699;0.000;0.000;2023-12-20T02:51:44;99585.38;;;19.61
76007;BMP280;64699;0.000;0.000;2023-12-20T02:54:09;99581.88;;;19.61
76007;BMP280;64699;0.000;0.000;2023-12-20T02:56:34;99578.41;;;19.60
76007;BMP280;64699;0.000;0.000;2023-12-20T02:59:00;99576.19;;;19.59
76007;BMP280;64699;0.000;0.000;2023-12-20T03:01:25;99577.47;;;19.58
76007;BMP280;64699;0.000;0.000;2023-12-20T03:03:51;99573.28;;;19.57
76007;BMP280;64699;0.000;0.000;2023-12-20T03:06:17;99567.03;;;19.56
76007;BMP280;64699;0.000;0.000;2023-12-20T03:08:43;99563.53;;;19.56
76007;BMP280;64699;0.000;0.000;2023-12-20T03:11:08;99563.53;;;19.56
76007;BMP280;64699;0.000;0.000;2023-12-20T03:13:34;99571.59;;;19.54
76007;BMP280;64699;0.000;0.000;2023-12-20T03:15:59;99566.31;;;19.56
76007;BMP280;64699;0.000;0.000;2023-12-20T03:18:24;99560.03;;;19.55
76007;BMP280;64699;0.000;0.000;2023-12-20T03:20:51;99558.97;;;19.51
76007;BMP280;64699;0.000;0.000;2023-12-20T03:23:16;99555.06;;;19.54
76007;BMP280;64699;0.000;0.000;2023-12-20T03:25:42;99555.06;;;19.54
76007;BMP280;64699;0.000;0.000;2023-12-20T03:28:07;99553.63;;;19.53
76007;BMP280;64699;0.000;0.000;2023-12-20T03:30:32;99553.63;;;19.53
76007;BMP280;64699;0.000;0.000;2023-12-20T03:32:57;99565.75;;;19.50
76007;BMP280;64699;0.000;0.000;2023-12-20T03:35:22;99560.97;;;19.50
76007;BMP280;64699;0.000;0.000;2023-12-20T03:37:48;99556.94;;;19.51
76007;BMP280;64699;0.000;0.000;2023-12-20T03:40:13;99555.47;;;19.50
76007;BMP280;64699;0.000;0.000;2023-12-20T03:42:38;99552.56;;;19.48
76007;BMP280;64699;0.000;0.000;2023-12-20T03:45:03;99547.03;;;19.48
76007;BMP280;64699;0.000;0.000;2023-12-20T03:47:29;99547.75;;;19.49
76007;BMP280;64699;0.000;0.000;2023-12-20T03:49:54;99540.06;;;19.47
76007;BMP280;64699;0.000;0.000;2023-12-20T03:52:19;99541.53;;;19.48
76007;BMP280;64699;0.000;0.000;2023-12-20T03:54:44;99540.75;;;19.55
76007;BMP280;64699;0.000;0.000;2023-12-20T03:57:09;99545.53;;;19.55
76007;BMP280;64699;0.000;0.000;2023-12-20T03:59:35;99552.31;;;19.54
76007;BMP280;64699;0.000;0.000;2023-12-20T04:02:01;99545.19;;;19.51
76007;BMP280;64699;0.000;0.000;2023-12-20T04:04:27;99548.66;;;19.51
76007;BMP280;64699;0.000;0.000;2023-12-20T04:06:52;99546.66;;;19.52
76007;BMP280;64699;0.000;0.000;2023-12-20T04:09:17;99537.47;;;19.49
76007;BMP280;64699;0.000;0.000;2023-12-20T04:11:42;99537.47;;;19.49
76007;BMP280;64699;0.000;0.000;2023-12-20T04:14:07;99525.72;;;19.49
76007;BMP280;64699;0.000;0.000;2023-12-20T04:16:33;99542.81;;;19.47
76007;BMP280;64699;0.000;0.000;2023-12-20T04:18:58;99552.22;;;19.44
76007;BMP280;64699;0.000;0.000;2023-12-20T04:21:23;99544.09;;;19.46
76007;BMP280;64699;0.000;0.000;2023-12-20T04:23:49;99542.06;;;19.47
76007;BMP280;64699;0.000;0.000;2023-12-20T04:26:14;99543.34;;;19.46
76007;BMP280;64699;0.000;0.000;2023-12-20T04:28:39;99534.94;;;19.44
76007;BMP280;64699;0.000;0.000;2023-12-20T04:31:04;99532.00;;;19.42
76007;BMP280;64699;0.000;0.000;2023-12-20T04:33:29;99545.97;;;19.44
76007;BMP280;64699;0.000;0.000;2023-12-20T04:35:55;99547.25;;;19.43
76007;BMP280;64699;0.000;0.000;2023-12-20T04:38:20;99526.50;;;19.42
76007;BMP280;64699;0.000;0.000;2023-12-20T04:40:45;99533.47;;;19.43
76007;BMP280;64699;0.000;0.000;2023-12-20T04:43:10;99536.38;;;19.45
76007;BMP280;64699;0.000;0.000;2023-12-20T04:45:35;99533.09;;;19.46
76007;BMP280;64699;0.000;0.000;2023-12-20T04:48:02;99548.16;;;19.45
76007;BMP280;64699;0.000;0.000;2023-12-20T04:50:27;99543.03;;;19.42
76007;BMP280;64699;0.000;0.000;2023-12-20T04:52:52;99535.09;;;19.46
76007;BMP280;64699;0.000;0.000;2023-12-20T04:55:17;99547.59;;;19.47
76007;BMP280;64699;0.000;0.000;2023-12-20T04:57:43;99538.94;;;19.50
76007;BMP280;64699;0.000;0.000;2023-12-20T05:00:08;99537.09;;;19.53
76007;BMP280;64699;0.000;0.000;2023-12-20T05:02:34;99543.69;;;19.57
76007;BMP280;64699;0.000;0.000;2023-12-20T05:04:59;99541.84;;;19.60
76007;BMP280;64699;0.000;0.000;2023-12-20T05:07:25;99539.22;;;19.62
76007;BMP280;64699;0.000;0.000;2023-12-20T05:09:50;99533.94;;;19.64
76007;BMP280;64699;0.000;0.000;2023-12-20T05:12:15;99523.09;;;19.66
76007;BMP280;64699;0.000;0.000;2023-12-20T05:14:40;99519.03;;;19.67
76007;BMP280;64699;0.000;0.000;2023-12-20T05:17:05;99520.84;;;19.72
76007;BMP280;64699;0.000;0.000;2023-12-20T05:19:31;99519.56;;;19.73
76007;BMP280;64699;0.000;0.000;2023-12-20T05:22:00;99518.41;;;19.76
76007;BMP280;64699;0.000;0.000;2023-12-20T05:24:25;99525.00;;;19.80
76007;BMP280;64699;0.000;0.000;2023-12-20T05:26:50;99527.38;;;19.84
76007;BMP280;64699;0.000;0.000;2023-12-20T05:29:15;99523.00;;;19.81
76007;BMP280;64699;0.000;0.000;2023-12-20T05:31:42;99528.66;;;19.83
76007;BMP280;64699;0.000;0.000;2023-12-20T05:34:07;99527.72;;;19.88
76007;BMP280;64699;0.000;0.000;2023-12-20T05:36:33;99517.41;;;19.88
76007;BMP280;64699;0.000;0.000;2023-12-20T05:38:58;99519.78;;;19.92
76007;BMP280;64699;0.000;0.000;2023-12-20T05:41:23;99515.94;;;19.95
76007;BMP280;64699;0.000;0.000;2023-12-20T05:43:48;99522.88;;;19.96
76007;BMP280;64699;0.000;0.000;2023-12-20T05:46:13;99525.81;;;19.98
76007;BMP280;64699;0.000;0.000;2023-12-20T05:48:39;99523.22;;;19.99
76007;BMP280;64699;0.000;0.000;2023-12-20T05:51:04;99523.66;;;20.13
76007;BMP280;64699;0.000;0.000;2023-12-20T05:53:29;99523.06;;;20.22
76007;BMP280;64699;0.000;0.000;2023-12-20T05:55:54;99534.50;;;20.18
76007;BMP280;64699;0.000;0.000;2023-12-20T05:58:20;99530.59;;;20.21
76007;BMP280;64699;0.000;0.000;2023-12-20T06:00:45;99533.72;;;20.25
76007;BMP280;64699;0.000;0.000;2023-12-20T06:03:10;99524.88;;;20.27
76007;BMP280;64699;0.000;0.000;2023-12-20T06:05:35;99529.31;;;20.22
76007;BMP280;64699;0.000;0.000;2023-12-20T06:08:01;99522.28;;;20.29
76007;BMP280;64699;0.000;0.000;2023-12-20T06:10:28;99514.63;;;20.44
76007;BMP280;64699;0.000;0.000;2023-12-20T06:12:53;99517.38;;;20.44
76007;BMP280;64699;0.000;0.000;2023-12-20T06:15:18;99524.47;;;20.30
76007;BMP280;64699;0.000;0.000;2023-12-20T06:17:44;99521.78;;;20.23
76007;BMP280;64699;0.000;0.000;2023-12-20T06:20:09;99517.97;;;20.18
76007;BMP280;64699;0.000;0.000;2023-12-20T06:22:35;99530.47;;;20.12
76007;BMP280;64699;0.000;0.000;2023-12-20T06:25:01;99526.50;;;20.05
76007;BMP280;64699;0.000;0.000;2023-12-20T06:27:27;99533.31;;;20.04
76007;BMP280;64699;0.000;0.000;2023-12-20T06:29:53;99532.56;;;20.04
76007;BMP280;64699;0.000;0.000;2023-12-20T06:32:18;99527.03;;;20.04
76007;BMP280;64699;0.000;0.000;2023-12-20T06:34:43;99531.66;;;20.01
76007;BMP280;64699;0.000;0.000;2023-12-20T06:37:08;99522.13;;;20.02
76007;BMP280;64699;0.000;0.000;2023-12-20T06:39:33;99531.66;;;20.01
76007;BMP280;64699;0.000;0.000;2023-12-20T06:41:59;99531.84;;;20.03
76007;BMP280;64699;0.000;0.000;2023-12-20T06:44:24;99527.28;;;19.99
76007;BMP280;64699;0.000;0.000;2023-12-20T06:46:49;99532.94;;;20.00
76007;BMP280;64699;0.000;0.000;2023-12-20T06:49:15;99527.28;;;19.99
76007;BMP280;64699;0.000;0.000;2023-12-20T06:51:40;99528.03;;;19.99
76007;BMP280;64699;0.000;0.000;2023-12-20T06:54:05;99524.22;;;19.95
76007;BMP280;64699;0.000;0.000;2023-12-20T06:56:30;99530.03;;;19.99
76007;BMP280;64699;0.000;0.000;2023-12-20T06:58:56;99529.47;;;20.00
76007;BMP280;64699;0.000;0.000;2023-12-20T07:01:21;99521.78;;;19.99
76007;BMP280;64699;0.000;0.000;2023-12-20T07:03:47;99525.81;;;19.98
76007;BMP280;64699;0.000;0.000;2023-12-20T07:06:12;99520.13;;;19.96
76007;BMP280;64699;0.000;0.000;2023-12-20T07:08:39;99529.31;;;19.98
76007;BMP280;64699;0.000;0.000;2023-12-20T07:11:05;99518.09;;;19.96
76007;BMP280;64699;0.000;0.000;2023-12-20T07:13:30;99520.31;;;19.98
76007;BMP280;64699;0.000;0.000;2023-12-20T07:15:55;99528.41;;;19.96
76007;BMP280;64699;0.000;0.000;2023-12-20T07:18:20;99522.88;;;19.96
76007;BMP280;64699;0.000;0.000;2023-12-20T07:20:46;99529.72;;;19.95
76007;BMP280;64699;0.000;0.000;2023-12-20T07:23:11;99526.97;;;19.95
76007;BMP280;64699;0.000;0.000;2023-12-20T07:25:36;99531.34;;;19.98
76007;BMP280;64699;0.000;0.000;2023-12-20T07:28:01;99533.91;;;19.96
76007;BMP280;64699;0.000;0.000;2023-12-20T07:30:27;99530.81;;;19.92
76007;BMP280;64699;0.000;0.000;2023-12-20T07:32:53;99533.03;;;19.93
76007;BMP280;64699;0.000;0.000;2023-12-20T07:35:18;99529.91;;;19.89
76007;BMP280;64699;0.000;0.000;2023-12-20T07:37:43;99528.44;;;19.88
76007;BMP280;64699;0.000;0.000;2023-12-20T07:40:09;99520.91;;;19.89
76007;BMP280;64699;0.000;0.000;2023-12-20T07:42:34;99525.53;;;19.86
76007;BMP280;64699;0.000;0.000;2023-12-20T07:44:59;99535.63;;;19.84
76007;BMP280;64699;0.000;0.000;2023-12-20T07:47:45;99531.78;;;19.87
76007;BMP280;64699;0.000;0.000;2023-12-20T07:50:10;99536.00;;;19.88
76007;BMP280;64699;0.000;0.000;2023-12-20T07:52:35;99523.31;;;19.85
76007;BMP280;64699;0.000;0.000;2023-12-20T07:55:00;99532.72;;;19.82
76007;BMP280;64699;0.000;0.000;2023-12-20T07:57:28;99526.28;;;19.79
76007;BMP280;64699;0.000;0.000;2023-12-20T07:59:53;99525.75;;;19.81
76007;BMP280;64699;0.000;0.000;2023-12-20T08:02:19;99531.25;;;19.81
76007;BMP280;64699;0.000;0.000;2023-12-20T08:04:44;99521.16;;;19.76
76007;BMP280;64699;0.000;0.000;2023-12-20T08:07:09;99525.41;;;19.77
76007;BMP280;64699;0.000;0.000;2023-12-20T08:09:34;99534.56;;;19.79
76007;BMP280;64699;0.000;0.000;2023-12-20T08:12:01;99532.19;;;19.76
76007;BMP280;64699;0.000;0.000;2023-12-20T08:14:27;99529.63;;;19.78
76007;BMP280;64699;0.000;0.000;2023-12-20T08:16:52;99533.66;;;19.77
76007;BMP280;64699;0.000;0.000;2023-12-20T08:19:17;99533.66;;;19.77
76007;BMP280;64699;0.000;0.000;2023-12-20T08:21:42;99532.19;;;19.76
76007;BMP280;64699;0.000;0.000;2023-12-20T08:24:08;99525.97;;;19.75
76007;BMP280;64699;0.000;0.000;2023-12-20T08:26:33;99520.44;;;19.75
76007;BMP280;64699;0.000;0.000;2023-12-20T08:28:58;99520.84;;;19.72
76007;BMP280;64699;0.000;0.000;2023-12-20T08:31:23;99527.06;;;19.72
76007;BMP280;64699;0.000;0.000;2023-12-20T08:33:49;99521.03;;;19.74
76007;BMP280;64699;0.000;0.000;2023-12-20T08:36:14;99521.16;;;19.76
76007;BMP280;64699;0.000;0.000;2023-12-20T08:38:39;99525.06;;;19.73
76007;BMP280;64699;0.000;0.000;2023-12-20T08:41:05;99524.31;;;19.72
76007;BMP280;64699;0.000;0.000;2023-12-20T08:43:33;99534.81;;;19.74
76007;BMP280;64699;0.000;0.000;2023-12-20T08:45:59;99525.59;;;19.71
76007;BMP280;64699;0.000;0.000;2023-12-20T08:48:24;99524.13;;;19.70
76007;BMP280;64699;0.000;0.000;2023-12-20T08:50:49;99524.13;;;19.70
76007;BMP280;64699;0.000;0.000;2023-12-20T08:53:16;99528.75;;;19.68
76007;BMP280;64699;0.000;0.000;2023-12-20T08:55:42;99528.94;;;19.70
76007;BMP280;64699;0.000;0.000;2023-12-20T08:58:07;99530.03;;;19.67
76007;BMP280;64699;0.000;0.000;2023-12-20T09:00:33;99519.03;;;19.67
76007;BMP280;64699;0.000;0.000;2023-12-20T09:02:58;99520.47;;;19.68
76007;BMP280;64699;0.000;0.000;2023-12-20T09:05:24;99520.34;;;19.66
76007;BMP280;64699;0.000;0.000;2023-12-20T09:07:49;99508.38;;;19.63
76007;BMP280;64699;0.000;0.000;2023-12-20T09:10:14;99500.88;;;19.64
76007;BMP280;64699;0.000;0.000;2023-12-20T09:12:40;99508.38;;;19.63
76007;BMP280;64699;0.000;0.000;2023-12-20T09:15:06;99506.38;;;19.64
76007;BMP280;64699;0.000;0.000;2023-12-20T09:17:31;99498.84;;;19.64
76007;BMP280;64699;0.000;0.000;2023-12-20T09:19:56;99498.84;;;19.64
76007;BMP280;64699;0.000;0.000;2023-12-20T09:22:21;99500.66;;;19.62
76007;BMP280;64699;0.000;0.000;2023-12-20T09:24:47;99492.59;;;19.64
76007;BMP280;64699;0.000;0.000;2023-12-20T09:27:12;99485.59;;;19.63
76007;BMP280;64699;0.000;0.000;2023-12-20T09:29:37;99490.25;;;19.60
76007;BMP280;64699;0.000;0.000;2023-12-20T09:32:03;99484.13;;;19.62
76007;BMP280;64699;0.000;0.000;2023-12-20T09:34:28;99483.22;;;19.59
76007;BMP280;64699;0.000;0.000;2023-12-20T09:36:54;99481.22;;;19.60
76007;BMP280;64699;0.000;0.000;2023-12-20T09:39:19;99477.19;;;19.61
76007;BMP280;64699;0.000;0.000;2023-12-20T09:41:46;99466.56;;;19.57
76007;BMP280;64699;0.000;0.000;2023-12-20T09:44:15;99472.06;;;19.57
76007;BMP280;64699;0.000;0.000;2023-12-20T09:46:43;99463.09;;;19.57
76007;BMP280;64699;0.000;0.000;2023-12-20T09:49:08;99457.56;;;19.57
76007;BMP280;64699;0.000;0.000;2023-12-20T09:51:33;99463.63;;;19.55
76007;BMP280;64699;0.000;0.000;2023-12-20T09:53:59;99464.53;;;19.58
76007;BMP280;64699;0.000;0.000;2023-12-20T09:56:26;99461.94;;;19.60
76007;BMP280;64699;0.000;0.000;2023-12-20T09:58:51;99459.56;;;19.56
76007;BMP280;64699;0.000;0.000;2023-12-20T10:01:16;99455.91;;;19.54
76007;BMP280;64699;0.000;0.000;2023-12-20T10:03:42;99451.31;;;19.56
76007;BMP280;64699;0.000;0.000;2023-12-20T10:06:07;99452.59;;;19.55
76007;BMP280;64699;0.000;0.000;2023-12-20T10:08:32;99449.09;;;19.55
76007;BMP280;64699;0.000;0.000;2023-12-20T10:10:58;99451.72;;;19.53
76007;BMP280;64699;0.000;0.000;2023-12-20T10:13:27;99453.34;;;19.56
76007;BMP280;64699;0.000;0.000;2023-12-20T10:15:54;99450.25;;;19.52
76007;BMP280;64699;0.000;0.000;2023-12-20T10:18:20;99453.16;;;19.54
76007;BMP280;64699;0.000;0.000;2023-12-20T10:20:45;99451.53;;;19.51
76007;BMP280;64699;0.000;0.000;2023-12-20T10:23:11;99455.56;;;19.50
76007;BMP280;64699;0.000;0.000;2023-12-20T10:25:36;99453.53;;;19.50
76007;BMP280;64699;0.000;0.000;2023-12-20T10:28:14;99449.91;;;19.48
76007;BMP280;64699;0.000;0.000;2023-12-20T10:30:44;99450.06;;;19.50
76007;BMP280;64699;0.000;0.000;2023-12-20T10:33:09;99444.41;;;19.48
76007;BMP280;64699;0.000;0.000;2023-12-20T10:35:35;99448.59;;;19.49
76007;BMP280;64699;0.000;0.000;2023-12-20T10:38:03;99447.16;;;19.48
76007;BMP280;64699;0.000;0.000;2023-12-20T10:40:28;99442.38;;;19.48
76007;BMP280;64699;0.000;0.000;2023-12-20T10:42:54;99439.63;;;19.48
76007;BMP280;64699;0.000;0.000;2023-12-20T10:45:21;99433.38;;;19.48
76007;BMP280;64699;0.000;0.000;2023-12-20T10:47:46;99431.88;;;19.47
76007;BMP280;64699;0.000;0.000;2023-12-20T10:50:11;99434.66;;;19.47
76007;BMP280;64699;0.000;0.000;2023-12-20T10:52:37;99427.66;;;19.46
76007;BMP280;64699;0.000;0.000;2023-12-20T10:55:02;99435.03;;;19.43
76007;BMP280;64699;0.000;0.000;2023-12-20T10:57:28;99428.97;;;19.45
76007;BMP280;64699;0.000;0.000;2023-12-20T10:59:53;99422.56;;;19.42
76007;BMP280;64699;0.000;0.000;2023-12-20T11:02:19;99423.44;;;19.45
76007;BMP280;64699;0.000;0.000;2023-12-20T11:04:50;99421.84;;;19.42
76007;BMP280;64699;0.000;0.000;2023-12-20T11:07:19;99422.94;;;19.39
76007;BMP280;64699;0.000;0.000;2023-12-20T11:09:59;99414.44;;;19.52
76007;BMP280;64699;0.000;0.000;2023-12-20T11:12:35;99415.47;;;19.64
76007;BMP280;64699;0.000;0.000;2023-12-20T11:15:03;99411.81;;;19.54
76007;BMP280;64699;0.000;0.000;2023-12-20T11:17:29;99407.88;;;19.40
76007;BMP280;64699;0.000;0.000;2023-12-20T11:22:26;99406.38;;;19.46
76007;BMP280;64699;0.000;0.000;2023-12-20T11:24:53;99394.63;;;19.46
76007;BMP280;64699;0.000;0.000;2023-12-20T11:27:19;99394.63;;;19.46
76007;BMP280;64699;0.000;0.000;2023-12-20T11:29:51;99386.94;;;19.44
76007;BMP280;64699;0.000;0.000;2023-12-20T11:34:51;99380.53;;;19.42
76007;BMP280;64699;0.000;0.000;2023-12-20T11:37:19;99384.97;;;19.37
76007;BMP280;64699;0.000;0.000;2023-12-20T11:39:44;99384.47;;;19.31
76007;BMP280;64699;0.000;0.000;2023-12-20T11:42:10;99372.88;;;19.33
76007;BMP280;64699;0.000;0.000;2023-12-20T11:44:36;99370.44;;;19.37
76007;BMP280;64699;0.000;0.000;2023-12-20T11:47:01;99359.03;;;19.40
76007;BMP280;64699;0.000;0.000;2023-12-20T11:49:26;99366.75;;;19.42
76007;BMP280;64699;0.000;0.000;2023-12-20T11:51:54;99357.19;;;19.43
76007;BMP280;64699;0.000;0.000;2023-12-20T11:54:19;99357.19;;;19.43
76007;BMP280;64699;0.000;0.000;2023-12-20T11:56:45;99356.47;;;19.42
76007;BMP280;64699;0.000;0.000;2023-12-20T11:59:10;99354.28;;;19.41
76007;BMP280;64699;0.000;0.000;2023-12-20T12:01:36;99351.69;;;19.43
76007;BMP280;64699;0.000;0.000;2023-12-20T12:04:02;99351.69;;;19.43
76007;BMP280;64699;0.000;0.000;2023-12-20T12:06:27;99350.22;;;19.42
76007;BMP280;64699;0.000;0.000;2023-12-20T12:08:52;99350.94;;;19.42
76007;BMP280;64699;0.000;0.000;2023-12-20T12:11:19;99344.72;;;19.42
76007;BMP280;64699;0.000;0.000;2023-12-20T12:13:44;99338.31;;;19.39
76007;BMP280;64699;0.000;0.000;2023-12-20T12:16:09;99336.28;;;19.40
76007;BMP280;64699;0.000;0.000;2023-12-20T12:18:35;99333.53;;;19.40
76007;BMP280;64699;0.000;0.000;2023-12-20T12:21:01;99332.25;;;19.41
76007;BMP280;64699;0.000;0.000;2023-12-20T12:23:27;99333.03;;;19.34
76007;BMP280;64699;0.000;0.000;2023-12-20T12:25:52;99330.38;;;19.19
76007;BMP280;64699;0.000;0.000;2023-12-20T12:28:18;99332.75;;;19.15
76007;BMP280;64699;0.000;0.000;2023-12-20T12:30:55;99333.16;;;19.12
76007;BMP280;64699;0.000;0.000;2023-12-20T12:33:20;99331.69;;;19.18
76007;BMP280;64699;0.000;0.000;2023-12-20T12:35:46;99328.31;;;19.27
76007;BMP280;64699;0.000;0.000;2023-12-20T12:38:12;99324.78;;;19.34
76007;BMP280;64699;0.000;0.000;2023-12-20T12:40:38;99316.81;;;19.38
76007;BMP280;64699;0.000;0.000;2023-12-20T12:43:03;99311.66;;;19.42
76007;BMP280;64699;0.000;0.000;2023-12-20T12:45:29;99315.34;;;19.44
76007;BMP280;64699;0.000;0.000;2023-12-20T12:47:54;99307.78;;;19.45
76007;BMP280;64699;0.000;0.000;2023-12-20T12:50:20;99307.94;;;19.47
76007;BMP280;64699;0.000;0.000;2023-12-20T12:52:46;99315.81;;;19.50
76007;BMP280;64699;0.000;0.000;2023-12-20T12:55:12;99311.22;;;19.53
76007;BMP280;64699;0.000;0.000;2023-12-20T12:57:37;99314.13;;;19.55
76007;BMP280;64699;0.000;0.000;2023-12-20T13:00:02;99321.25;;;19.58
76007;BMP280;64699;0.000;0.000;2023-12-20T13:02:28;99317.41;;;19.61
76007;BMP280;64699;0.000;0.000;2023-12-20T13:04:53;99310.56;;;19.62
76007;BMP280;64699;0.000;0.000;2023-12-20T13:07:18;99317.75;;;19.65
76007;BMP280;64699;0.000;0.000;2023-12-20T13:09:44;99317.75;;;19.65
76007;BMP280;64699;0.000;0.000;2023-12-20T13:12:09;99317.00;;;19.64
76007;BMP280;64699;0.000;0.000;2023-12-20T13:14:34;99315.13;;;19.67
76007;BMP280;64699;0.000;0.000;2023-12-20T13:17:01;99311.63;;;19.66
76007;BMP280;64699;0.000;0.000;2023-12-20T13:19:28;99313.13;;;19.67
76007;BMP280;64699;0.000;0.000;2023-12-20T13:21:55;99318.63;;;19.67
76007;BMP280;64699;0.000;0.000;2023-12-20T13:24:20;99322.84;;;19.68
76007;BMP280;64699;0.000;0.000;2023-12-20T13:26:45;99324.31;;;19.69
76007;BMP280;64699;0.000;0.000;2023-12-20T13:29:10;99322.84;;;19.68
76007;BMP280;64699;0.000;0.000;2023-12-20T13:31:37;99329.06;;;19.69
76007;BMP280;64699;0.000;0.000;2023-12-20T13:34:02;99318.81;;;19.69
76007;BMP280;64699;0.000;0.000;2023-12-20T13:36:27;99324.31;;;19.69
76007;BMP280;64699;0.000;0.000;2023-12-20T13:38:52;99323.56;;;19.69
76007;BMP280;64699;0.000;0.000;2023-12-20T13:41:18;99320.22;;;19.70
76007;BMP280;64699;0.000;0.000;2023-12-20T13:43:43;99323.00;;;19.70
76007;BMP280;64699;0.000;0.000;2023-12-20T13:46:08;99322.28;;;19.70
76007;BMP280;64699;0.000;0.000;2023-12-20T13:48:34;99326.47;;;19.71
76007;BMP280;64699;0.000;0.000;2023-12-20T13:50:59;99317.47;;;19.70
76007;BMP280;64699;0.000;0.000;2023-12-20T13:53:25;99307.78;;;19.69
76007;BMP280;64699;0.000;0.000;2023-12-20T13:55:50;99311.25;;;19.70
76007;BMP280;64699;0.000;0.000;2023-12-20T13:58:15;99311.25;;;19.70
76007;BMP280;64699;0.000;0.000;2023-12-20T14:00:41;99314.00;;;19.70
76007;BMP280;64699;0.000;0.000;2023-12-20T14:03:06;99319.53;;;19.70
76007;BMP280;64699;0.000;0.000;2023-12-20T14:05:32;99313.28;;;19.69
76007;BMP280;64699;0.000;0.000;2023-12-20T14:07:58;99310.44;;;19.77
76007;BMP280;64699;0.000;0.000;2023-12-20T14:10:23;99308.75;;;19.81
76007;BMP280;64699;0.000;0.000;2023-12-20T14:12:51;99309.81;;;19.86
76007;BMP280;64699;0.000;0.000;2023-12-20T14:15:16;99308.84;;;19.91
76007;BMP280;64699;0.000;0.000;2023-12-20T14:17:41;99305.69;;;19.94